Patricia Anne — WDF9428 — position and weather

sailwx.info

Track history (hours):
 
Tides and Currents Weather Stations Pressure Air Temp Water Temp Dewpoint Dewpoint Depression Visibility Wind Speed Wind Dir Waves Ship Positions

Patricia Anne

Owner: Genesis Marine, LLC, Houston, TX. More information available from US FCC via Universal Licensing System and Coast Guard Vessel Documentation Center.

Last reported at 2018-Feb-21 03:36 UTC. Time now 2018-Feb-21 05:12 UTC.
Position N 29°29' W 094°36'.

Length 26 m; draft 3 m.

Type: Towing. MMSI: 367505060.

Date/timePositionNaut miles runAvg speedWind from/ knotsBaromVisibWave heightAir tempDewpointWater temp
2018-Feb-21 03:36N 29°29' W 094°36'0 0.0
2018-Feb-21 02:41N 29°29' W 094°36'0 0.0
2018-Feb-21 01:36N 29°29' W 094°36'6 2.0
2018-Feb-20 22:29N 29°26' W 094°42'2 2.9
2018-Feb-20 21:44N 29°25' W 094°44'21 4.3
2018-Feb-20 16:56N 29°12' W 095°03'12 3.9
2018-Feb-20 13:45N 29°03' W 095°13'2 4.4
2018-Feb-20 13:24N 29°02' W 095°14'12 2.1
2018-Feb-20 07:40N 28°54' W 095°24'0 0.0
2018-Feb-20 07:12N 28°54' W 095°24'0 0.1
2018-Feb-20 06:50N 28°54' W 095°24'34 2.7
2018-Feb-19 18:37N 28°41' W 095°59'0 0.6
2018-Feb-19 18:23N 28°41' W 095°59'11 2.1
2018-Feb-19 13:12N 28°36' W 096°11'1 5.1
2018-Feb-19 12:58N 28°35' W 096°11'3 5.0
2018-Feb-19 12:17N 28°32' W 096°14'2 5.2
2018-Feb-19 11:53N 28°31' W 096°16'5 4.7
2018-Feb-19 10:54N 28°29' W 096°21'2 4.5
2018-Feb-19 10:26N 28°28' W 096°23'3 4.2
2018-Feb-19 09:47N 28°26' W 096°25'1 3.7
2018-Feb-19 09:25N 28°26' W 096°26'2 3.4
2018-Feb-19 08:53N 28°25' W 096°28'4 3.6
2018-Feb-19 07:43N 28°23' W 096°32'2 3.9
2018-Feb-19 07:20N 28°22' W 096°34'1 3.9
2018-Feb-19 06:57N 28°22' W 096°35'2 3.9
2018-Feb-19 06:30N 28°21' W 096°37'2 4.0
2018-Feb-19 06:00N 28°20' W 096°39'2 3.6
2018-Feb-19 05:30N 28°19' W 096°41'3 4.7
2018-Feb-19 04:50N 28°17' W 096°44'2 4.7
2018-Feb-19 04:28N 28°16' W 096°45'3 4.5
2018-Feb-19 03:52N 28°14' W 096°47'1 3.5
2018-Feb-19 03:30N 28°13' W 096°49'2 3.9
2018-Feb-19 02:54N 28°11' W 096°51'2 4.2
2018-Feb-19 02:29N 28°10' W 096°52'2 4.1
2018-Feb-19 01:59N 28°09' W 096°54'2 3.1
2018-Feb-19 01:30N 28°08' W 096°55'2 3.5
2018-Feb-19 01:00N 28°06' W 096°56'2 4.8
2018-Feb-19 00:30N 28°05' W 096°58'2 4.3
2018-Feb-18 23:59N 28°03' W 096°59'2 4.5
2018-Feb-18 23:29N 28°01' W 097°01'2 4.8
2018-Feb-18 23:01N 27°59' W 097°02'3 4.6
2018-Feb-18 22:24N 27°57' W 097°04'2 4.7
2018-Feb-18 21:55N 27°54' W 097°03'2 4.9
2018-Feb-18 21:26N 27°52' W 097°03'2 4.1
2018-Feb-18 20:57N 27°50' W 097°05'3 5.9
2018-Feb-18 20:30N 27°50' W 097°07'21 1.3
2018-Feb-18 04:21N 27°51' W 097°31'23 2.6
2018-Feb-17 19:25N 27°50' W 097°05'3 4.2
2018-Feb-17 18:48N 27°52' W 097°03'0 1.3
2018-Feb-17 18:28N 27°52' W 097°03'0 0.0
2018-Feb-17 18:00N 27°52' W 097°03'0 0.0
2018-Feb-17 17:30N 27°52' W 097°03'0 0.0
2018-Feb-17 16:59N 27°52' W 097°03'0 0.0
2018-Feb-17 16:29N 27°52' W 097°03'0 0.0
2018-Feb-17 16:00N 27°52' W 097°03'0 0.0
2018-Feb-17 15:30N 27°52' W 097°03'0 0.0
2018-Feb-17 15:00N 27°52' W 097°03'0 0.0
2018-Feb-17 14:30N 27°52' W 097°03'0 0.0
2018-Feb-17 14:00N 27°52' W 097°03'0 0.0
2018-Feb-17 13:29N 27°52' W 097°03'0 0.0
2018-Feb-17 13:00N 27°52' W 097°03'0 0.0
2018-Feb-17 12:30N 27°52' W 097°03'0 0.0
2018-Feb-17 11:59N 27°52' W 097°03'0 0.0
2018-Feb-17 11:29N 27°52' W 097°03'0 0.0
2018-Feb-17 11:00N 27°52' W 097°03'0 0.0
2018-Feb-17 10:30N 27°52' W 097°03'0 0.0
2018-Feb-17 09:59N 27°52' W 097°03'0 0.0
2018-Feb-17 09:29N 27°52' W 097°03'0 0.0
2018-Feb-17 09:00N 27°52' W 097°03'0 0.0
2018-Feb-17 08:24N 27°52' W 097°03'0 0.0
2018-Feb-17 07:59N 27°52' W 097°03'0 0.0
2018-Feb-17 07:13N 27°52' W 097°03'0 0.0
2018-Feb-17 07:00N 27°52' W 097°03'0 0.0
2018-Feb-17 06:29N 27°52' W 097°03'0 0.0
2018-Feb-17 05:59N 27°52' W 097°03'0 0.0
2018-Feb-17 05:10N 27°52' W 097°03'0 0.0
2018-Feb-17 05:00N 27°52' W 097°03'0 0.0
2018-Feb-17 04:25N 27°52' W 097°03'0 0.0
2018-Feb-17 04:00N 27°52' W 097°03'0 0.0
2018-Feb-17 03:13N 27°52' W 097°03'0 0.2
2018-Feb-17 02:33N 27°53' W 097°03'0 3.2
2018-Feb-17 02:24N 27°53' W 097°03'2 5.3
2018-Feb-17 02:00N 27°55' W 097°03'3 5.2
2018-Feb-17 01:30N 27°58' W 097°03'3 5.4
2018-Feb-17 00:59N 28°00' W 097°02'3 5.8
2018-Feb-17 00:30N 28°02' W 096°60'3 5.7
2018-Feb-17 00:00N 28°04' W 096°58'3 5.5
2018-Feb-16 23:29N 28°07' W 096°56'3 5.5
2018-Feb-16 23:00N 28°09' W 096°54'0 0.1
2018-Feb-16 22:27N 28°09' W 096°54'0 0.0
2018-Feb-16 22:00N 28°09' W 096°54'0 0.0
2018-Feb-16 21:29N 28°09' W 096°54'0 0.0
2018-Feb-16 20:59N 28°09' W 096°54'0 0.0
2018-Feb-16 20:30N 28°09' W 096°54'0 0.0
2018-Feb-16 19:59N 28°09' W 096°54'0 0.0
2018-Feb-16 19:30N 28°09' W 096°54'1 2.8
2018-Feb-16 19:00N 28°10' W 096°53'8 5.3
2018-Feb-16 17:30N 28°15' W 096°46'6 4.2
2018-Feb-16 16:10N 28°18' W 096°41'1 3.1
2018-Feb-16 15:45N 28°19' W 096°40'0 0.0
2018-Feb-16 15:29N 28°19' W 096°40'0 0.0
2018-Feb-16 14:59N 28°19' W 096°40'0 0.0
2018-Feb-16 11:43N 28°19' W 096°40'0 0.0
2018-Feb-16 11:28N 28°19' W 096°40'0 0.0
2018-Feb-16 07:45N 28°19' W 096°40'0 0.0
2018-Feb-16 07:13N 28°19' W 096°40'0 0.0
2018-Feb-16 06:47N 28°19' W 096°40'0 0.0
2018-Feb-16 06:29N 28°19' W 096°40'0 0.0
2018-Feb-16 06:00N 28°19' W 096°40'0 0.0
2018-Feb-16 05:29N 28°19' W 096°40'0 0.0
2018-Feb-16 04:55N 28°19' W 096°40'0 0.0
2018-Feb-16 04:30N 28°19' W 096°40'0 0.0
2018-Feb-16 03:59N 28°19' W 096°40'0 0.0
2018-Feb-16 03:24N 28°19' W 096°40'0 0.0
2018-Feb-16 03:00N 28°19' W 096°40'0 0.0
2018-Feb-16 02:29N 28°19' W 096°40'0 0.0
2018-Feb-16 01:52N 28°19' W 096°40'0 0.0
2018-Feb-16 01:23N 28°19' W 096°40'0 0.0
2018-Feb-16 00:56N 28°19' W 096°40'0 0.0
2018-Feb-16 00:30N 28°19' W 096°40'0 0.5
2018-Feb-15 23:52N 28°19' W 096°40'0 0.0
2018-Feb-15 23:20N 28°19' W 096°40'0 0.1
2018-Feb-15 22:57N 28°19' W 096°40'2 3.7
2018-Feb-15 22:26N 28°20' W 096°38'2 4.3
2018-Feb-15 21:58N 28°21' W 096°36'3 4.2
2018-Feb-15 21:16N 28°23' W 096°33'1 4.4
2018-Feb-15 21:00N 28°23' W 096°32'3 4.4
2018-Feb-15 20:15N 28°25' W 096°28'1 4.4
2018-Feb-15 19:59N 28°25' W 096°27'3 4.5
2018-Feb-15 19:16N 28°27' W 096°24'1 5.3
2018-Feb-15 19:01N 28°28' W 096°23'14 3.8
2018-Feb-15 15:21N 28°36' W 096°10'  
2018-Feb-12 05:55N 29°24' W 094°46'0 0.0
2018-Feb-12 01:27N 29°24' W 094°46'  
Track history (hours):
 
Tides and Currents Weather Stations Pressure Air Temp Water Temp Dewpoint Dewpoint Depression Visibility Wind Speed Wind Dir Waves Ship Positions

Patricia Anne

Owner: Genesis Marine, LLC, Houston, TX. More information available from US FCC via Universal Licensing System and Coast Guard Vessel Documentation Center.

Last reported at 2018-Feb-21 03:36 UTC. Time now 2018-Feb-21 05:12 UTC.
Position N 29°29' W 094°36'.

Length 26 m; draft 3 m.

Type: Towing. MMSI: 367505060.

Date/timePositionNaut miles runAvg speedWind from/ knotsBaromVisibWave heightAir tempDewpointWater temp
2018-Feb-21 03:36N 29°29' W 094°36'0 0.0
2018-Feb-21 02:41N 29°29' W 094°36'0 0.0
2018-Feb-21 01:36N 29°29' W 094°36'6 2.0
2018-Feb-20 22:29N 29°26' W 094°42'2 2.9
2018-Feb-20 21:44N 29°25' W 094°44'21 4.3
2018-Feb-20 16:56N 29°12' W 095°03'12 3.9
2018-Feb-20 13:45N 29°03' W 095°13'2 4.4
2018-Feb-20 13:24N 29°02' W 095°14'12 2.1
2018-Feb-20 07:40N 28°54' W 095°24'0 0.0
2018-Feb-20 07:12N 28°54' W 095°24'0 0.1
2018-Feb-20 06:50N 28°54' W 095°24'34 2.7
2018-Feb-19 18:37N 28°41' W 095°59'0 0.6
2018-Feb-19 18:23N 28°41' W 095°59'11 2.1
2018-Feb-19 13:12N 28°36' W 096°11'1 5.1
2018-Feb-19 12:58N 28°35' W 096°11'3 5.0
2018-Feb-19 12:17N 28°32' W 096°14'2 5.2
2018-Feb-19 11:53N 28°31' W 096°16'5 4.7
2018-Feb-19 10:54N 28°29' W 096°21'2 4.5
2018-Feb-19 10:26N 28°28' W 096°23'3 4.2
2018-Feb-19 09:47N 28°26' W 096°25'1 3.7
2018-Feb-19 09:25N 28°26' W 096°26'2 3.4
2018-Feb-19 08:53N 28°25' W 096°28'4 3.6
2018-Feb-19 07:43N 28°23' W 096°32'2 3.9
2018-Feb-19 07:20N 28°22' W 096°34'1 3.9
2018-Feb-19 06:57N 28°22' W 096°35'2 3.9
2018-Feb-19 06:30N 28°21' W 096°37'2 4.0
2018-Feb-19 06:00N 28°20' W 096°39'2 3.6
2018-Feb-19 05:30N 28°19' W 096°41'3 4.7
2018-Feb-19 04:50N 28°17' W 096°44'2 4.7
2018-Feb-19 04:28N 28°16' W 096°45'3 4.5
2018-Feb-19 03:52N 28°14' W 096°47'1 3.5
2018-Feb-19 03:30N 28°13' W 096°49'2 3.9
2018-Feb-19 02:54N 28°11' W 096°51'2 4.2
2018-Feb-19 02:29N 28°10' W 096°52'2 4.1
2018-Feb-19 01:59N 28°09' W 096°54'2 3.1
2018-Feb-19 01:30N 28°08' W 096°55'2 3.5
2018-Feb-19 01:00N 28°06' W 096°56'2 4.8
2018-Feb-19 00:30N 28°05' W 096°58'2 4.3
2018-Feb-18 23:59N 28°03' W 096°59'2 4.5
2018-Feb-18 23:29N 28°01' W 097°01'2 4.8
2018-Feb-18 23:01N 27°59' W 097°02'3 4.6
2018-Feb-18 22:24N 27°57' W 097°04'2 4.7
2018-Feb-18 21:55N 27°54' W 097°03'2 4.9
2018-Feb-18 21:26N 27°52' W 097°03'2 4.1
2018-Feb-18 20:57N 27°50' W 097°05'3 5.9
2018-Feb-18 20:30N 27°50' W 097°07'21 1.3
2018-Feb-18 04:21N 27°51' W 097°31'23 2.6
2018-Feb-17 19:25N 27°50' W 097°05'3 4.2
2018-Feb-17 18:48N 27°52' W 097°03'0 1.3
2018-Feb-17 18:28N 27°52' W 097°03'0 0.0
2018-Feb-17 18:00N 27°52' W 097°03'0 0.0
2018-Feb-17 17:30N 27°52' W 097°03'0 0.0
2018-Feb-17 16:59N 27°52' W 097°03'0 0.0
2018-Feb-17 16:29N 27°52' W 097°03'0 0.0
2018-Feb-17 16:00N 27°52' W 097°03'0 0.0
2018-Feb-17 15:30N 27°52' W 097°03'0 0.0
2018-Feb-17 15:00N 27°52' W 097°03'0 0.0
2018-Feb-17 14:30N 27°52' W 097°03'0 0.0
2018-Feb-17 14:00N 27°52' W 097°03'0 0.0
2018-Feb-17 13:29N 27°52' W 097°03'0 0.0
2018-Feb-17 13:00N 27°52' W 097°03'0 0.0
2018-Feb-17 12:30N 27°52' W 097°03'0 0.0
2018-Feb-17 11:59N 27°52' W 097°03'0 0.0
2018-Feb-17 11:29N 27°52' W 097°03'0 0.0
2018-Feb-17 11:00N 27°52' W 097°03'0 0.0
2018-Feb-17 10:30N 27°52' W 097°03'0 0.0
2018-Feb-17 09:59N 27°52' W 097°03'0 0.0
2018-Feb-17 09:29N 27°52' W 097°03'0 0.0
2018-Feb-17 09:00N 27°52' W 097°03'0 0.0
2018-Feb-17 08:24N 27°52' W 097°03'0 0.0
2018-Feb-17 07:59N 27°52' W 097°03'0 0.0
2018-Feb-17 07:13N 27°52' W 097°03'0 0.0
2018-Feb-17 07:00N 27°52' W 097°03'0 0.0
2018-Feb-17 06:29N 27°52' W 097°03'0 0.0
2018-Feb-17 05:59N 27°52' W 097°03'0 0.0
2018-Feb-17 05:10N 27°52' W 097°03'0 0.0
2018-Feb-17 05:00N 27°52' W 097°03'0 0.0
2018-Feb-17 04:25N 27°52' W 097°03'0 0.0
2018-Feb-17 04:00N 27°52' W 097°03'0 0.0
2018-Feb-17 03:13N 27°52' W 097°03'0 0.2
2018-Feb-17 02:33N 27°53' W 097°03'0 3.2
2018-Feb-17 02:24N 27°53' W 097°03'2 5.3
2018-Feb-17 02:00N 27°55' W 097°03'3 5.2
2018-Feb-17 01:30N 27°58' W 097°03'3 5.4
2018-Feb-17 00:59N 28°00' W 097°02'3 5.8
2018-Feb-17 00:30N 28°02' W 096°60'3 5.7
2018-Feb-17 00:00N 28°04' W 096°58'3 5.5
2018-Feb-16 23:29N 28°07' W 096°56'3 5.5
2018-Feb-16 23:00N 28°09' W 096°54'0 0.1
2018-Feb-16 22:27N 28°09' W 096°54'0 0.0
2018-Feb-16 22:00N 28°09' W 096°54'0 0.0
2018-Feb-16 21:29N 28°09' W 096°54'0 0.0
2018-Feb-16 20:59N 28°09' W 096°54'0 0.0
2018-Feb-16 20:30N 28°09' W 096°54'0 0.0
2018-Feb-16 19:59N 28°09' W 096°54'0 0.0
2018-Feb-16 19:30N 28°09' W 096°54'1 2.8
2018-Feb-16 19:00N 28°10' W 096°53'8 5.3
2018-Feb-16 17:30N 28°15' W 096°46'6 4.2
2018-Feb-16 16:10N 28°18' W 096°41'1 3.1
2018-Feb-16 15:45N 28°19' W 096°40'0 0.0
2018-Feb-16 15:29N 28°19' W 096°40'0 0.0
2018-Feb-16 14:59N 28°19' W 096°40'0 0.0
2018-Feb-16 11:43N 28°19' W 096°40'0 0.0
2018-Feb-16 11:28N 28°19' W 096°40'0 0.0
2018-Feb-16 07:45N 28°19' W 096°40'0 0.0
2018-Feb-16 07:13N 28°19' W 096°40'0 0.0
2018-Feb-16 06:47N 28°19' W 096°40'0 0.0
2018-Feb-16 06:29N 28°19' W 096°40'0 0.0
2018-Feb-16 06:00N 28°19' W 096°40'0 0.0
2018-Feb-16 05:29N 28°19' W 096°40'0 0.0
2018-Feb-16 04:55N 28°19' W 096°40'0 0.0
2018-Feb-16 04:30N 28°19' W 096°40'0 0.0
2018-Feb-16 03:59N 28°19' W 096°40'0 0.0
2018-Feb-16 03:24N 28°19' W 096°40'0 0.0
2018-Feb-16 03:00N 28°19' W 096°40'0 0.0
2018-Feb-16 02:29N 28°19' W 096°40'0 0.0
2018-Feb-16 01:52N 28°19' W 096°40'0 0.0
2018-Feb-16 01:23N 28°19' W 096°40'0 0.0
2018-Feb-16 00:56N 28°19' W 096°40'0 0.0
2018-Feb-16 00:30N 28°19' W 096°40'0 0.5
2018-Feb-15 23:52N 28°19' W 096°40'0 0.0
2018-Feb-15 23:20N 28°19' W 096°40'0 0.1
2018-Feb-15 22:57N 28°19' W 096°40'2 3.7
2018-Feb-15 22:26N 28°20' W 096°38'2 4.3
2018-Feb-15 21:58N 28°21' W 096°36'3 4.2
2018-Feb-15 21:16N 28°23' W 096°33'1 4.4
2018-Feb-15 21:00N 28°23' W 096°32'3 4.4
2018-Feb-15 20:15N 28°25' W 096°28'1 4.4
2018-Feb-15 19:59N 28°25' W 096°27'3 4.5
2018-Feb-15 19:16N 28°27' W 096°24'1 5.3
2018-Feb-15 19:01N 28°28' W 096°23'14 3.8
2018-Feb-15 15:21N 28°36' W 096°10'  
2018-Feb-12 05:55N 29°24' W 094°46'0 0.0
2018-Feb-12 01:27N 29°24' W 094°46'  

Dump ship's entire track history